createdAt,value
2022-11-21T00:03:13.435Z,52.5
2022-11-21T00:08:13.391Z,52.3
2022-11-21T00:13:13.595Z,51.0
2022-11-21T00:18:13.438Z,50.4
2022-11-21T00:23:13.404Z,49.8
2022-11-21T00:28:13.423Z,49.1
2022-11-21T00:33:13.637Z,48.1
2022-11-21T00:38:13.642Z,47.8
2022-11-21T00:43:13.249Z,47.3
2022-11-21T00:48:13.310Z,47.9
2022-11-21T00:53:13.484Z,50.1
2022-11-21T00:58:13.279Z,48.4
2022-11-21T01:03:13.221Z,46.7
2022-11-21T01:08:13.364Z,46.5
2022-11-21T01:13:13.368Z,50.6
2022-11-21T01:18:13.243Z,47.0
2022-11-21T01:23:13.255Z,47.7
2022-11-21T01:28:13.233Z,48.8
2022-11-21T01:33:13.251Z,49.0
2022-11-21T01:38:13.196Z,48.4
2022-11-21T01:43:13.156Z,48.4
2022-11-21T01:48:13.197Z,49.7
2022-11-21T01:53:13.955Z,50.3
2022-11-21T01:58:14.166Z,59.6
2022-11-21T02:03:13.128Z,58.3
2022-11-21T02:08:13.159Z,46.1
2022-11-21T02:13:13.906Z,43.5
2022-11-21T02:18:13.833Z,50.7
2022-11-21T02:23:13.855Z,54.8
2022-11-21T02:28:13.883Z,108.8
2022-11-21T02:33:13.765Z,133.4
2022-11-21T02:38:13.109Z,101.2
2022-11-21T02:43:13.123Z,41.1
2022-11-21T02:48:13.401Z,42.2
2022-11-21T02:53:13.040Z,42.4
2022-11-21T02:58:13.401Z,45.5
2022-11-21T03:03:13.460Z,38.5
2022-11-21T03:08:14.346Z,41.2
2022-11-21T03:13:13.576Z,65.8
2022-11-21T03:18:13.227Z,39.8
2022-11-21T03:23:17.331Z,37.4
2022-11-21T03:28:13.133Z,37.8
2022-11-21T03:33:13.101Z,35.8
2022-11-21T03:38:13.072Z,37.8
2022-11-21T03:43:13.058Z,35.8
2022-11-21T03:48:12.941Z,34.4
2022-11-21T03:53:13.039Z,35.7
2022-11-21T03:58:13.028Z,36.3
2022-11-21T04:03:13.169Z,41.7
2022-11-21T04:08:13.034Z,40.7
2022-11-21T04:13:13.047Z,45.7
2022-11-21T04:18:13.135Z,42.2
2022-11-21T04:23:12.893Z,48.9
2022-11-21T04:28:12.879Z,51.8
2022-11-21T04:33:12.990Z,48.5
2022-11-21T04:38:12.933Z,39.2
2022-11-21T04:43:13.009Z,37.5
2022-11-21T04:48:13.014Z,34.3
2022-11-21T04:53:13.015Z,34.3
2022-11-21T04:58:12.942Z,35.6
2022-11-21T05:03:12.882Z,36.4
2022-11-21T05:08:12.888Z,36.5
2022-11-21T05:13:12.874Z,36.3
2022-11-21T05:18:13.128Z,36.5
2022-11-21T05:23:12.873Z,36.3
2022-11-21T05:28:12.802Z,34.4
2022-11-21T05:33:13.059Z,34.4
2022-11-21T05:38:12.914Z,33.9
2022-11-21T05:43:12.824Z,36.9
2022-11-21T05:48:13.007Z,37.8
2022-11-21T05:53:12.899Z,40.4
2022-11-21T05:58:12.777Z,37.9
2022-11-21T06:03:13.089Z,40.2
2022-11-21T06:08:12.812Z,36.7
2022-11-21T06:13:13.536Z,37.8
2022-11-21T06:18:12.855Z,50.3
2022-11-21T06:23:12.825Z,42.2
2022-11-21T06:28:13.151Z,38.1
2022-11-21T06:33:12.727Z,34.1
2022-11-21T06:38:12.693Z,36.0
2022-11-21T06:43:13.923Z,33.2
2022-11-21T06:48:12.809Z,34.9
2022-11-21T06:53:12.781Z,36.2
2022-11-21T06:58:12.669Z,34.4
2022-11-21T07:03:12.647Z,35.4
2022-11-21T07:08:13.550Z,39.2
2022-11-21T07:13:12.619Z,35.2
2022-11-21T07:18:12.839Z,35.7
2022-11-21T07:23:12.695Z,37.6
2022-11-21T07:28:12.577Z,34.8
2022-11-21T07:33:14.180Z,37.3
2022-11-21T07:38:14.800Z,34.2
2022-11-21T07:43:18.684Z,37.1
2022-11-21T07:48:12.555Z,37.2
2022-11-21T07:53:12.635Z,35.0
2022-11-21T07:58:12.769Z,34.1
2022-11-21T08:03:12.726Z,34.4
2022-11-21T08:08:12.785Z,32.3
2022-11-21T08:13:12.731Z,32.9
2022-11-21T08:18:12.633Z,31.3
2022-11-21T08:23:12.683Z,31.7
2022-11-21T08:28:12.448Z,31.0
2022-11-21T08:33:12.520Z,32.5
2022-11-21T08:38:13.073Z,38.4
2022-11-21T08:43:12.535Z,33.7
2022-11-21T08:48:12.537Z,32.1
2022-11-21T08:53:12.401Z,32.2
2022-11-21T08:58:12.502Z,30.6
2022-11-21T09:03:12.461Z,27.3
2022-11-21T09:08:12.610Z,25.3
2022-11-21T09:13:12.350Z,23.6
2022-11-21T09:18:12.697Z,21.5
2022-11-21T09:23:12.656Z,24.0
2022-11-21T09:28:12.446Z,22.8
2022-11-21T09:33:12.452Z,22.4
2022-11-21T09:38:12.535Z,22.0
2022-11-21T09:43:12.357Z,21.0
2022-11-21T09:48:12.346Z,19.7
2022-11-21T09:53:12.452Z,21.0
2022-11-21T09:58:12.324Z,20.2
2022-11-21T10:03:12.326Z,20.9
2022-11-21T10:08:12.467Z,23.3
2022-11-21T10:13:12.876Z,22.6
2022-11-21T10:18:12.288Z,22.0
2022-11-21T10:23:12.427Z,21.6
2022-11-21T10:28:12.275Z,24.3
2022-11-21T10:33:12.382Z,24.7
2022-11-21T10:38:12.440Z,25.6
2022-11-21T10:43:12.297Z,29.4
2022-11-21T10:48:12.305Z,32.8
2022-11-21T10:53:12.535Z,28.7
2022-11-21T10:58:12.308Z,29.7
2022-11-21T11:03:12.322Z,27.6
2022-11-21T11:08:12.435Z,25.4
2022-11-21T11:13:38.730Z,25.4
2022-11-21T11:18:12.269Z,24.8
2022-11-21T11:23:12.297Z,25.7
2022-11-21T11:28:12.168Z,25.2
2022-11-21T11:33:12.271Z,22.7
2022-11-21T11:38:12.302Z,24.1
2022-11-21T11:43:12.336Z,24.8
2022-11-21T11:48:12.221Z,26.6
2022-11-21T11:53:12.521Z,27.1
2022-11-21T11:58:12.110Z,29.1
2022-11-21T12:03:12.167Z,28.1
2022-11-21T12:08:42.281Z,45.8
2022-11-21T12:13:16.284Z,55.6
2022-11-21T12:18:16.149Z,39.0
2022-11-21T12:23:12.392Z,33.2
2022-11-21T12:28:12.125Z,31.9
2022-11-21T12:33:12.155Z,34.2
2022-11-21T12:38:12.279Z,48.6
2022-11-21T12:43:12.073Z,36.8
2022-11-21T12:48:12.047Z,51.5
2022-11-21T12:53:12.349Z,43.4
2022-11-21T12:58:12.144Z,39.0
2022-11-21T13:03:14.346Z,34.0
2022-11-21T13:08:13.752Z,41.8
2022-11-21T13:13:13.034Z,178.2
2022-11-21T13:18:13.072Z,113.5
2022-11-21T13:23:12.618Z,66.2
2022-11-21T13:28:11.974Z,41.8
2022-11-21T13:33:16.150Z,53.3
2022-11-21T13:38:13.189Z,151.1
2022-11-21T13:43:31.895Z,110.8
2022-11-21T13:48:12.308Z,47.7
2022-11-21T13:53:12.495Z,42.2
2022-11-21T13:58:12.296Z,45.0
2022-11-21T14:03:14.689Z,42.7
2022-11-21T14:08:13.101Z,64.2
2022-11-21T14:13:17.893Z,41.2
2022-11-21T14:18:17.773Z,78.0
2022-11-21T14:23:17.252Z,42.2
2022-11-21T14:28:16.994Z,42.2
2022-11-21T14:33:16.997Z,41.0
2022-11-21T14:38:17.511Z,38.2
2022-11-21T14:43:17.133Z,32.5
2022-11-21T14:48:17.096Z,32.4
2022-11-21T14:53:16.970Z,30.3
2022-11-21T14:58:17.060Z,23.6
2022-11-21T15:03:17.122Z,42.0
2022-11-21T15:08:38.830Z,20.9
2022-11-21T15:13:17.103Z,16.4
2022-11-21T15:18:27.581Z,16.3
2022-11-21T15:23:16.981Z,21.6
2022-11-21T15:28:16.755Z,20.6
2022-11-21T15:33:16.896Z,28.2
2022-11-21T15:38:16.918Z,33.3
2022-11-21T15:43:16.937Z,29.1
2022-11-21T15:48:16.797Z,22.5
2022-11-21T15:53:16.909Z,31.9
2022-11-21T15:58:17.684Z,33.1
2022-11-21T16:03:16.750Z,27.5
2022-11-21T16:08:17.907Z,25.7
2022-11-21T16:13:17.021Z,24.8
2022-11-21T16:18:16.730Z,35.5
2022-11-21T16:23:16.799Z,30.0
2022-11-21T16:28:16.909Z,23.0
2022-11-21T16:33:16.781Z,28.2
2022-11-21T16:38:16.766Z,31.5
2022-11-21T16:43:16.633Z,27.9
2022-11-21T16:48:16.760Z,27.5
2022-11-21T16:53:16.730Z,30.8
2022-11-21T16:58:16.862Z,31.1
2022-11-21T17:03:16.610Z,29.8
2022-11-21T17:08:16.699Z,32.8
2022-11-21T17:13:16.940Z,40.2
2022-11-21T17:18:17.012Z,47.4
2022-11-21T17:23:16.593Z,44.4
2022-11-21T17:28:16.845Z,44.9
2022-11-21T17:33:16.929Z,47.9
2022-11-21T17:38:16.598Z,49.1
2022-11-21T17:43:16.645Z,44.4
2022-11-21T17:48:17.376Z,53.4
2022-11-21T17:53:17.436Z,65.3
2022-11-21T17:58:17.268Z,81.5
2022-11-21T18:03:17.380Z,56.8
2022-11-21T18:08:17.334Z,60.2
2022-11-21T18:13:17.412Z,100.8
2022-11-21T18:18:17.297Z,111.3
2022-11-21T18:23:17.295Z,69.1
2022-11-21T18:28:17.369Z,62.4
2022-11-21T18:33:18.987Z,63.8
2022-11-21T18:38:46.047Z,61.4
2022-11-21T18:43:16.587Z,53.2
2022-11-21T18:48:17.916Z,54.9
2022-11-21T18:53:17.283Z,59.4
2022-11-21T18:58:17.159Z,101.5
2022-11-21T19:03:17.247Z,150.9
2022-11-21T19:08:17.170Z,112.0
2022-11-21T19:13:17.173Z,74.4
2022-11-21T19:18:17.143Z,64.0
2022-11-21T19:23:17.952Z,78.5
2022-11-21T19:28:17.131Z,147.1
2022-11-21T19:33:17.093Z,214.3
2022-11-21T19:38:17.563Z,107.3
2022-11-21T19:43:17.320Z,95.7
2022-11-21T19:48:17.126Z,153.4
2022-11-21T19:53:17.388Z,101.1
2022-11-21T19:58:17.053Z,166.8
2022-11-21T20:03:17.241Z,54.2
2022-11-21T20:08:20.110Z,63.0
2022-11-21T20:13:21.388Z,161.1
2022-11-21T20:18:21.648Z,119.4
2022-11-21T20:23:21.381Z,75.4
2022-11-21T20:28:21.458Z,183.8
2022-11-21T20:33:21.494Z,65.8
2022-11-21T20:38:24.329Z,49.0
2022-11-21T20:43:20.510Z,49.1
2022-11-21T20:48:20.752Z,41.8
2022-11-21T20:53:51.003Z,34.4
2022-11-21T20:58:20.403Z,33.2
2022-11-21T21:03:21.245Z,30.9
2022-11-21T21:08:20.510Z,103.8
2022-11-21T21:13:21.197Z,43.9
2022-11-21T21:18:21.265Z,127.0
2022-11-21T21:23:20.466Z,52.0
2022-11-21T21:28:21.361Z,46.5
2022-11-21T21:33:21.127Z,101.8
2022-11-21T21:38:21.112Z,62.1
2022-11-21T21:43:21.210Z,79.2
2022-11-21T21:48:21.297Z,89.0
2022-11-21T21:49:19.150Z,148.4
2022-11-21T21:54:19.978Z,0.0
2022-11-21T21:57:43.054Z,85.2
2022-11-21T22:02:39.327Z,0.0
2022-11-21T22:03:30.599Z,65.4
2022-11-21T22:06:31.679Z,0.0
2022-11-21T22:06:42.617Z,0.0
2022-11-21T22:06:57.539Z,0.0
2022-11-21T22:07:09.314Z,0.0
2022-11-21T22:07:20.985Z,0.0
2022-11-21T22:12:21.933Z,0.0
2022-11-21T22:12:31.550Z,62.6
2022-11-21T22:13:39.422Z,0.0
2022-11-21T22:18:40.308Z,0.0
2022-11-21T22:23:51.269Z,55.8
2022-11-21T22:24:23.000Z,45.4
2022-11-21T22:28:51.343Z,0.0
2022-11-21T22:29:02.160Z,36.4
2022-11-21T22:29:25.058Z,0.0
2022-11-21T22:34:25.222Z,0.0
2022-11-21T22:34:36.985Z,34.6
2022-11-21T22:39:37.131Z,0.0
2022-11-21T22:39:47.900Z,36.5
2022-11-21T22:40:32.650Z,0.0
2022-11-21T22:45:32.791Z,0.0
2022-11-21T22:45:44.613Z,38.7
2022-11-21T22:50:45.423Z,0.0
2022-11-21T22:50:55.631Z,39.5
2022-11-21T22:51:07.582Z,0.0
2022-11-21T22:56:07.533Z,0.0
2022-11-21T22:56:19.415Z,0.0
2022-11-21T22:56:30.356Z,0.0
2022-11-21T22:59:06.267Z,0.0
2022-11-21T23:04:04.539Z,0.0
2022-11-21T23:04:17.926Z,44.8
2022-11-21T23:04:49.177Z,0.0
2022-11-21T23:05:00.138Z,0.0
2022-11-21T23:05:23.003Z,0.0
2022-11-21T23:10:23.065Z,0.0
2022-11-21T23:10:34.963Z,49.3
2022-11-21T23:10:45.851Z,0.0
2022-11-21T23:14:03.842Z,0.0
2022-11-21T23:14:14.796Z,0.0
2022-11-21T23:14:48.580Z,0.0
2022-11-21T23:20:00.640Z,0.0
2022-11-21T23:20:11.501Z,44.5
2022-11-21T23:20:36.379Z,0.0
2022-11-21T23:20:47.238Z,0.0
2022-11-21T23:21:21.070Z,0.0
2022-11-21T23:26:22.409Z,0.0
2022-11-21T23:26:32.109Z,40.5
2022-11-21T23:27:16.748Z,0.0
2022-11-21T23:27:52.362Z,0.0
2022-11-21T23:28:15.206Z,0.0
2022-11-21T23:33:15.278Z,0.0
2022-11-21T23:33:27.165Z,0.0
2022-11-21T23:33:38.041Z,0.0
2022-11-21T23:34:00.902Z,0.0
2022-11-21T23:39:00.985Z,0.0
2022-11-21T23:44:00.943Z,40.3
2022-11-21T23:49:01.065Z,43.2
2022-11-21T23:49:11.988Z,44.8
2022-11-21T23:51:23.962Z,0.0
2022-11-21T23:56:24.057Z,0.0
2022-11-21T23:56:34.907Z,44.1
2022-11-21T23:57:21.753Z,0.0
2022-11-21T23:57:32.149Z,0.0
2022-11-21T23:58:05.923Z,0.0
